Time;durP1;ratioP1;P1;durP2;ratioP2;P2;SDS_P1;SDS_P2;PMS_P1;PMS_P2;Temp;Humidity;BMP_temperature;BMP_pressure;BME280_temperature;BME280_humidity;BME280_pressure;Samples;Min_cycle;Max_cycle;Signal;HPM_P1;HPM_P2
2023/04/24 00:02:21;;;;;;;0.70;0.70;;;;;;;;;;4979236;28;20220;-50
2023/04/24 00:04:48;;;;;;;0.90;0.90;;;;;;;;;;4999819;28;20599;-50
2023/04/24 00:07:16;;;;;;;0.85;0.82;;;;;;;;;;5000171;28;20234;-49
2023/04/24 00:09:43;;;;;;;0.70;0.70;;;;;;;;;;5000625;28;20222;-50
2023/04/24 00:12:09;;;;;;;0.73;0.73;;;;;;;;;;5001039;28;20576;-49
2023/04/24 00:14:35;;;;;;;0.68;0.68;;;;;;;;;;5000503;28;20221;-50
2023/04/24 00:17:02;;;;;;;0.93;0.90;;;;;;;;;;5000116;28;20204;-49
2023/04/24 00:19:28;;;;;;;1.33;0.70;;;;;;;;;;4999245;28;20185;-50
2023/04/24 00:21:54;;;;;;;0.80;0.80;;;;;;;;;;5000499;28;20633;-49
2023/04/24 00:24:21;;;;;;;0.68;0.68;;;;;;;;;;5000925;28;20636;-49
2023/04/24 00:26:47;;;;;;;1.23;0.80;;;;;;;;;;5000280;28;20169;-50
2023/04/24 00:29:13;;;;;;;0.80;0.80;;;;;;;;;;5000697;28;20187;-49
2023/04/24 00:31:39;;;;;;;0.70;0.70;;;;;;;;;;5000505;28;20519;-49
2023/04/24 00:34:05;;;;;;;2.17;0.80;;;;;;;;;;4999493;28;20201;-49
2023/04/24 00:36:32;;;;;;;0.80;0.80;;;;;;;;;;5000091;28;20196;-49
2023/04/24 00:38:58;;;;;;;1.02;0.80;;;;;;;;;;5000350;28;20212;-49
2023/04/24 00:41:25;;;;;;;1.05;0.70;;;;;;;;;;4999386;28;20231;-50
2023/04/24 00:43:52;;;;;;;0.60;0.60;;;;;;;;;;4999978;28;20484;-49
2023/04/24 00:46:18;;;;;;;1.25;0.70;;;;;;;;;;5000002;28;20239;-49
2023/04/24 00:48:44;;;;;;;2.13;0.68;;;;;;;;;;4999352;28;20181;-50
2023/04/24 00:51:10;;;;;;;0.60;0.50;;;;;;;;;;5000652;28;20276;-49
2023/04/24 00:53:36;;;;;;;0.68;0.68;;;;;;;;;;5000175;28;20272;-50
2023/04/24 00:56:02;;;;;;;1.65;1.00;;;;;;;;;;4997966;28;20251;-50
2023/04/24 00:58:30;;;;;;;0.80;0.80;;;;;;;;;;4999675;28;20189;-50
2023/04/24 01:00:57;;;;;;;0.93;0.93;;;;;;;;;;4998956;28;20232;-49
2023/04/24 01:03:25;;;;;;;0.55;0.55;;;;;;;;;;4998942;28;20189;-50
2023/04/24 01:05:51;;;;;;;0.70;0.70;;;;;;;;;;4999097;28;20169;-49
2023/04/24 01:08:17;;;;;;;1.17;0.80;;;;;;;;;;5000724;28;20268;-50
2023/04/24 01:10:45;;;;;;;0.70;0.70;;;;;;;;;;5000378;28;20204;-49
2023/04/24 01:13:11;;;;;;;0.73;0.73;;;;;;;;;;5000573;28;20185;-49
2023/04/24 01:15:37;;;;;;;0.80;0.80;;;;;;;;;;4994277;28;20239;-49
2023/04/24 01:18:03;;;;;;;0.50;0.50;;;;;;;;;;4996297;28;20193;-49
2023/04/24 01:20:30;;;;;;;0.60;0.60;;;;;;;;;;4995504;28;20657;-49
2023/04/24 01:22:56;;;;;;;1.88;0.68;;;;;;;;;;4997546;28;20569;-49
2023/04/24 01:25:22;;;;;;;0.75;0.70;;;;;;;;;;4997221;28;20217;-50
2023/04/24 01:27:48;;;;;;;0.57;0.57;;;;;;;;;;4996594;28;20212;-50
2023/04/24 01:30:14;;;;;;;0.70;0.70;;;;;;;;;;4996806;28;20177;-50
2023/04/24 01:32:40;;;;;;;1.60;0.70;;;;;;;;;;4996074;28;20177;-50
2023/04/24 01:35:07;;;;;;;0.60;0.60;;;;;;;;;;4997102;28;20184;-49
2023/04/24 01:37:33;;;;;;;0.77;0.77;;;;;;;;;;4996157;28;20173;-50
2023/04/24 01:39:59;;;;;;;1.13;0.63;;;;;;;;;;4996641;28;20469;-49
2023/04/24 01:42:26;;;;;;;0.70;0.70;;;;;;;;;;4995894;28;20196;-50
2023/04/24 01:44:52;;;;;;;0.50;0.50;;;;;;;;;;4995798;28;20545;-49
2023/04/24 01:47:17;;;;;;;0.60;0.60;;;;;;;;;;4995523;28;20207;-49
2023/04/24 01:49:43;;;;;;;0.60;0.60;;;;;;;;;;4996935;28;20189;-50
2023/04/24 01:52:09;;;;;;;0.50;0.50;;;;;;;;;;4996001;28;20196;-49
2023/04/24 01:54:35;;;;;;;0.57;0.57;;;;;;;;;;4996367;28;20205;-49
2023/04/24 01:57:02;;;;;;;0.55;0.55;;;;;;;;;;4995615;28;20188;-50
2023/04/24 01:59:28;;;;;;;0.70;0.70;;;;;;;;;;4995663;28;20195;-49
2023/04/24 02:01:54;;;;;;;0.73;0.70;;;;;;;;;;4996174;28;20216;-49
2023/04/24 02:04:20;;;;;;;0.70;0.70;;;;;;;;;;4996327;28;20185;-50
2023/04/24 02:06:46;;;;;;;0.65;0.57;;;;;;;;;;4995066;28;20192;-49
2023/04/24 02:09:12;;;;;;;0.60;0.60;;;;;;;;;;4996166;28;20553;-49
2023/04/24 02:11:38;;;;;;;0.50;0.50;;;;;;;;;;4995421;28;20189;-50
2023/04/24 02:14:04;;;;;;;0.60;0.60;;;;;;;;;;4995021;28;20488;-50
2023/04/24 02:16:32;;;;;;;0.50;0.50;;;;;;;;;;4994885;28;20275;-49
2023/04/24 02:18:58;;;;;;;0.50;0.50;;;;;;;;;;4996488;28;20181;-49
2023/04/24 02:21:25;;;;;;;0.45;0.45;;;;;;;;;;4995865;28;20452;-50
2023/04/24 02:23:51;;;;;;;0.60;0.60;;;;;;;;;;4996471;28;20185;-50
2023/04/24 02:26:18;;;;;;;0.60;0.60;;;;;;;;;;4994033;28;20192;-49
2023/04/24 02:28:44;;;;;;;0.57;0.57;;;;;;;;;;4995183;28;20181;-49
2023/04/24 02:31:09;;;;;;;0.82;0.50;;;;;;;;;;4996219;28;20428;-50
2023/04/24 02:33:35;;;;;;;0.60;0.60;;;;;;;;;;4995226;28;20195;-49
2023/04/24 02:36:02;;;;;;;1.25;0.55;;;;;;;;;;4995651;28;20189;-49
2023/04/24 02:38:28;;;;;;;0.57;0.57;;;;;;;;;;4992988;28;20183;-49
2023/04/24 02:40:54;;;;;;;0.75;0.70;;;;;;;;;;4993541;28;20213;-49
2023/04/24 02:43:20;;;;;;;0.73;0.60;;;;;;;;;;4994637;28;20193;-49
2023/04/24 02:45:46;;;;;;;0.50;0.50;;;;;;;;;;4994942;28;20893;-49
2023/04/24 02:48:12;;;;;;;0.50;0.50;;;;;;;;;;4995683;28;20193;-50
2023/04/24 02:50:38;;;;;;;0.60;0.60;;;;;;;;;;4995973;28;20184;-49
2023/04/24 02:53:04;;;;;;;0.85;0.70;;;;;;;;;;4995256;28;20197;-50
2023/04/24 02:55:30;;;;;;;0.60;0.60;;;;;;;;;;4994884;28;20208;-50
2023/04/24 02:57:56;;;;;;;0.68;0.68;;;;;;;;;;4994691;28;20231;-50
2023/04/24 03:00:21;;;;;;;0.50;0.50;;;;;;;;;;4994932;28;20208;-50
2023/04/24 03:02:49;;;;;;;0.47;0.47;;;;;;;;;;4995354;28;20177;-50
2023/04/24 03:05:15;;;;;;;0.43;0.43;;;;;;;;;;4995489;28;20185;-50
2023/04/24 03:07:41;;;;;;;0.40;0.40;;;;;;;;;;4994483;28;20860;-50
2023/04/24 03:10:07;;;;;;;0.47;0.47;;;;;;;;;;4993446;28;20177;-49
2023/04/24 03:12:33;;;;;;;0.65;0.65;;;;;;;;;;4995513;28;20185;-50
2023/04/24 03:14:59;;;;;;;0.60;0.60;;;;;;;;;;4994668;28;20450;-49
2023/04/24 03:17:25;;;;;;;0.40;0.40;;;;;;;;;;4994995;28;20185;-50
2023/04/24 03:19:51;;;;;;;0.40;0.40;;;;;;;;;;4994493;28;20532;-50
2023/04/24 03:22:17;;;;;;;0.77;0.77;;;;;;;;;;4995548;28;20224;-49
2023/04/24 03:24:42;;;;;;;0.80;0.80;;;;;;;;;;4994029;28;20219;-50
2023/04/24 03:27:08;;;;;;;0.45;0.45;;;;;;;;;;4995088;28;20264;-49
2023/04/24 03:29:34;;;;;;;0.95;0.82;;;;;;;;;;4994218;28;20556;-49
2023/04/24 03:32:00;;;;;;;1.65;0.95;;;;;;;;;;4994320;28;20580;-50
2023/04/24 03:34:26;;;;;;;2.45;1.10;;;;;;;;;;4994314;28;20189;-50
2023/04/24 03:36:52;;;;;;;4.50;1.50;;;;;;;;;;4978497;28;20227;-49
2023/04/24 03:39:18;;;;;;;5.35;2.00;;;;;;;;;;4993798;28;20204;-48
2023/04/24 03:41:44;;;;;;;5.03;2.45;;;;;;;;;;4992702;28;20216;-50
2023/04/24 03:44:10;;;;;;;10.57;2.67;;;;;;;;;;4993453;28;20481;-50
2023/04/24 03:46:36;;;;;;;11.57;2.90;;;;;;;;;;4993449;28;20230;-49
2023/04/24 03:49:02;;;;;;;13.80;3.60;;;;;;;;;;4994871;28;20177;-49
2023/04/24 03:51:30;;;;;;;10.38;3.15;;;;;;;;;;4994034;28;20212;-49
2023/04/24 03:53:56;;;;;;;9.57;3.25;;;;;;;;;;4993938;28;20247;-50
2023/04/24 03:56:21;;;;;;;14.95;3.72;;;;;;;;;;4994061;28;20235;-49
2023/04/24 03:58:47;;;;;;;18.98;5.15;;;;;;;;;;4993896;28;20185;-50
2023/04/24 04:01:15;;;;;;;22.83;6.50;;;;;;;;;;4993285;28;20240;-49
2023/04/24 04:03:41;;;;;;;29.88;7.95;;;;;;;;;;4993822;28;20177;-49
2023/04/24 04:06:07;;;;;;;34.90;10.38;;;;;;;;;;4993430;28;20567;-49
2023/04/24 04:08:33;;;;;;;32.42;10.25;;;;;;;;;;4992391;28;20186;-49
2023/04/24 04:10:59;;;;;;;52.25;12.23;;;;;;;;;;4993713;28;20213;-50
2023/04/24 04:13:25;;;;;;;47.50;12.10;;;;;;;;;;4994536;28;20280;-49
2023/04/24 04:15:51;;;;;;;43.22;11.30;;;;;;;;;;4993504;28;20200;-49
2023/04/24 04:18:17;;;;;;;38.17;11.07;;;;;;;;;;4993723;28;20189;-50
2023/04/24 04:20:43;;;;;;;37.28;10.57;;;;;;;;;;4993705;28;20205;-50
2023/04/24 04:23:09;;;;;;;35.90;11.20;;;;;;;;;;4994094;28;20261;-50
2023/04/24 04:25:35;;;;;;;36.78;11.15;;;;;;;;;;4993996;28;20231;-50
2023/04/24 04:28:01;;;;;;;38.42;11.55;;;;;;;;;;4993841;28;20177;-49
2023/04/24 04:30:29;;;;;;;30.25;10.40;;;;;;;;;;4993428;28;20235;-50
2023/04/24 04:32:56;;;;;;;30.98;9.65;;;;;;;;;;4994138;28;20219;-49
2023/04/24 04:35:22;;;;;;;30.67;9.27;;;;;;;;;;4993961;28;20199;-49
2023/04/24 04:37:48;;;;;;;28.52;9.20;;;;;;;;;;4993716;28;20196;-49
2023/04/24 04:40:14;;;;;;;24.17;8.43;;;;;;;;;;4993123;28;20236;-50
2023/04/24 04:42:40;;;;;;;25.70;8.88;;;;;;;;;;4992598;28;20519;-49
2023/04/24 04:45:08;;;;;;;25.17;8.60;;;;;;;;;;4994774;28;20186;-49
2023/04/24 04:47:34;;;;;;;24.95;8.20;;;;;;;;;;4992370;28;20758;-49
2023/04/24 04:50:00;;;;;;;21.38;7.05;;;;;;;;;;4994955;28;20217;-50
2023/04/24 04:52:26;;;;;;;24.27;8.30;;;;;;;;;;4997126;28;20193;-49
2023/04/24 04:54:53;;;;;;;21.77;7.55;;;;;;;;;;4997486;28;20639;-49
2023/04/24 04:57:19;;;;;;;23.50;7.07;;;;;;;;;;4996995;28;20200;-49
2023/04/24 04:59:44;;;;;;;24.27;6.97;;;;;;;;;;4997238;28;20546;-49
2023/04/24 05:02:11;;;;;;;21.25;7.30;;;;;;;;;;4997318;28;20228;-49
2023/04/24 05:04:37;;;;;;;24.20;7.13;;;;;;;;;;4997356;28;20186;-49
2023/04/24 05:07:03;;;;;;;19.63;6.28;;;;;;;;;;4996927;28;20545;-50
2023/04/24 05:09:29;;;;;;;20.95;7.07;;;;;;;;;;4996091;28;20267;-49
2023/04/24 05:11:55;;;;;;;23.23;6.20;;;;;;;;;;4996891;28;20188;-50
2023/04/24 05:14:21;;;;;;;16.15;5.93;;;;;;;;;;4997024;28;20208;-50
2023/04/24 05:16:47;;;;;;;16.63;5.85;;;;;;;;;;4996379;28;20575;-49
2023/04/24 05:19:14;;;;;;;16.48;6.03;;;;;;;;;;4996802;28;20207;-49
2023/04/24 05:21:40;;;;;;;17.95;6.80;;;;;;;;;;4996225;28;20197;-50
2023/04/24 05:24:06;;;;;;;17.30;6.50;;;;;;;;;;4997308;28;20177;-50
2023/04/24 05:26:32;;;;;;;13.52;5.38;;;;;;;;;;4996546;28;20177;-49
2023/04/24 05:28:58;;;;;;;12.63;5.65;;;;;;;;;;4997092;28;20187;-49
2023/04/24 05:31:25;;;;;;;13.25;5.47;;;;;;;;;;4996988;28;20608;-49
2023/04/24 05:33:51;;;;;;;14.77;5.43;;;;;;;;;;4997325;28;20899;-49
2023/04/24 05:36:17;;;;;;;15.20;5.80;;;;;;;;;;4996921;28;20185;-49
2023/04/24 05:38:43;;;;;;;15.20;5.95;;;;;;;;;;4996690;28;20232;-50
2023/04/24 05:41:09;;;;;;;12.98;4.68;;;;;;;;;;4996133;28;20209;-50
2023/04/24 05:43:34;;;;;;;13.38;4.90;;;;;;;;;;4995632;28;20286;-49
2023/04/24 05:46:00;;;;;;;15.63;5.43;;;;;;;;;;4995694;28;20193;-49
2023/04/24 05:48:26;;;;;;;16.27;6.15;;;;;;;;;;4995293;28;20185;-49
2023/04/24 05:50:52;;;;;;;11.00;4.15;;;;;;;;;;4996211;28;20188;-50
2023/04/24 05:53:18;;;;;;;11.65;4.22;;;;;;;;;;4995976;28;20197;-50
2023/04/24 05:55:45;;;;;;;14.40;5.20;;;;;;;;;;4995366;28;20204;-49
2023/04/24 05:58:11;;;;;;;11.27;4.68;;;;;;;;;;4995560;28;20452;-49
2023/04/24 06:00:37;;;;;;;13.50;5.53;;;;;;;;;;4995303;28;20205;-49
2023/04/24 06:03:03;;;;;;;16.80;5.03;;;;;;;;;;4996010;28;20196;-49
2023/04/24 06:05:30;;;;;;;15.27;4.93;;;;;;;;;;4995609;28;20182;-50
2023/04/24 06:07:56;;;;;;;14.23;4.90;;;;;;;;;;4995135;28;20181;-50
2023/04/24 06:10:22;;;;;;;9.25;4.05;;;;;;;;;;4995238;28;20207;-49
2023/04/24 06:12:48;;;;;;;11.25;4.30;;;;;;;;;;4996011;28;20553;-49
2023/04/24 06:15:14;;;;;;;12.27;4.47;;;;;;;;;;4995826;28;20230;-49
2023/04/24 06:17:40;;;;;;;11.70;4.35;;;;;;;;;;4995109;28;20561;-50
2023/04/24 06:20:07;;;;;;;13.20;4.32;;;;;;;;;;4995634;28;20216;-49
2023/04/24 06:22:33;;;;;;;12.10;4.28;;;;;;;;;;4994730;28;20188;-49
2023/04/24 06:25:00;;;;;;;11.38;4.10;;;;;;;;;;4996648;28;20224;-49
2023/04/24 06:27:26;;;;;;;10.63;3.80;;;;;;;;;;4991195;28;20296;-49
2023/04/24 06:29:54;;;;;;;12.35;4.45;;;;;;;;;;4996190;28;20332;-49
2023/04/24 06:32:20;;;;;;;9.73;4.15;;;;;;;;;;4994856;28;20216;-50
2023/04/24 06:34:46;;;;;;;8.10;3.92;;;;;;;;;;4995237;28;20220;-49
2023/04/24 06:37:12;;;;;;;11.30;3.70;;;;;;;;;;4995418;28;20280;-49
2023/04/24 06:39:37;;;;;;;9.23;3.55;;;;;;;;;;4994095;28;20181;-49
2023/04/24 06:42:03;;;;;;;7.72;3.53;;;;;;;;;;4993924;28;20205;-50
2023/04/24 06:44:29;;;;;;;9.02;3.45;;;;;;;;;;4995012;28;20451;-49
2023/04/24 06:46:55;;;;;;;10.07;3.55;;;;;;;;;;4995001;28;20608;-50
2023/04/24 06:49:21;;;;;;;9.13;4.30;;;;;;;;;;4994950;28;20189;-49
2023/04/24 06:51:47;;;;;;;8.57;3.53;;;;;;;;;;4994756;28;20196;-50
2023/04/24 06:54:13;;;;;;;9.98;3.63;;;;;;;;;;4993659;28;20221;-50
2023/04/24 06:56:39;;;;;;;7.28;3.80;;;;;;;;;;4977538;28;20196;-49
2023/04/24 06:59:05;;;;;;;6.53;3.17;;;;;;;;;;4994014;28;20251;-51
2023/04/24 07:01:31;;;;;;;6.40;3.28;;;;;;;;;;4994305;28;20223;-49
2023/04/24 07:03:57;;;;;;;8.07;3.28;;;;;;;;;;4995491;28;20185;-49
2023/04/24 07:06:23;;;;;;;6.22;3.22;;;;;;;;;;4994595;28;20557;-49
2023/04/24 07:08:49;;;;;;;5.15;2.78;;;;;;;;;;4995526;28;20264;-50
2023/04/24 07:11:15;;;;;;;8.55;3.55;;;;;;;;;;4993493;28;20189;-50
2023/04/24 07:13:41;;;;;;;5.88;3.03;;;;;;;;;;4993624;28;20212;-49
2023/04/24 07:16:08;;;;;;;7.68;3.28;;;;;;;;;;4994509;28;20811;-50
2023/04/24 07:18:34;;;;;;;6.93;2.78;;;;;;;;;;4995390;28;20197;-49
2023/04/24 07:21:00;;;;;;;6.68;3.00;;;;;;;;;;4993754;28;20263;-49
2023/04/24 07:23:26;;;;;;;6.47;3.28;;;;;;;;;;4995264;28;20184;-49
2023/04/24 07:25:52;;;;;;;7.70;3.17;;;;;;;;;;4993877;28;20706;-49
2023/04/24 07:28:18;;;;;;;6.72;3.03;;;;;;;;;;4994621;28;20196;-49
2023/04/24 07:30:44;;;;;;;5.78;2.78;;;;;;;;;;4994061;28;20640;-49
2023/04/24 07:33:12;;;;;;;5.43;2.55;;;;;;;;;;4994698;28;20515;-49
2023/04/24 07:35:38;;;;;;;3.22;2.17;;;;;;;;;;4994853;28;20173;-49
2023/04/24 07:38:04;;;;;;;6.22;2.90;;;;;;;;;;4995969;28;20189;-49
2023/04/24 07:40:30;;;;;;;5.75;2.55;;;;;;;;;;4993370;28;20304;-49
2023/04/24 07:42:56;;;;;;;4.95;2.50;;;;;;;;;;4993905;28;20264;-50
2023/04/24 07:45:23;;;;;;;6.13;2.72;;;;;;;;;;4994291;28;20178;-49
2023/04/24 07:47:50;;;;;;;6.03;2.35;;;;;;;;;;4994076;28;20185;-49
2023/04/24 07:50:16;;;;;;;5.20;2.47;;;;;;;;;;4994712;28;20226;-49
2023/04/24 07:52:42;;;;;;;5.30;2.35;;;;;;;;;;4993651;28;20196;-49
2023/04/24 07:55:08;;;;;;;4.72;2.42;;;;;;;;;;4993873;28;20243;-50
2023/04/24 07:57:34;;;;;;;3.85;2.30;;;;;;;;;;4992633;28;20192;-49
2023/04/24 08:00:00;;;;;;;3.60;2.20;;;;;;;;;;4992499;28;20181;-49
2023/04/24 08:02:26;;;;;;;3.75;2.40;;;;;;;;;;4993410;28;20978;-50
2023/04/24 08:04:55;;;;;;;4.32;2.42;;;;;;;;;;4994604;28;20204;-50
2023/04/24 08:07:22;;;;;;;2.80;1.70;;;;;;;;;;4992151;28;20619;-49
2023/04/24 08:09:47;;;;;;;3.47;2.05;;;;;;;;;;4990311;28;20191;-50
2023/04/24 08:12:14;;;;;;;3.40;1.90;;;;;;;;;;4993891;28;20189;-50
2023/04/24 08:14:39;;;;;;;4.63;2.33;;;;;;;;;;4993599;28;20208;-50
2023/04/24 08:17:05;;;;;;;5.50;2.40;;;;;;;;;;4993770;28;20474;-50
2023/04/24 08:19:31;;;;;;;4.57;2.00;;;;;;;;;;4994444;28;20220;-50
2023/04/24 08:21:57;;;;;;;3.72;2.00;;;;;;;;;;4992820;28;20205;-50
2023/04/24 08:24:23;;;;;;;4.72;1.85;;;;;;;;;;4996645;28;20185;-49
2023/04/24 08:26:51;;;;;;;3.35;2.08;;;;;;;;;;4997769;28;20516;-50
2023/04/24 08:29:17;;;;;;;3.72;2.00;;;;;;;;;;4994510;28;20184;-50
2023/04/24 08:31:43;;;;;;;4.85;2.00;;;;;;;;;;4997770;28;20189;-49
2023/04/24 08:34:10;;;;;;;3.55;1.90;;;;;;;;;;4998231;28;20809;-50
2023/04/24 08:36:35;;;;;;;4.90;1.98;;;;;;;;;;4997710;28;20196;-49
2023/04/24 08:39:01;;;;;;;4.13;1.80;;;;;;;;;;4998055;28;20189;-49
2023/04/24 08:41:27;;;;;;;4.95;2.20;;;;;;;;;;4997467;28;20213;-50
2023/04/24 08:43:54;;;;;;;3.83;1.77;;;;;;;;;;4997697;28;20888;-50
2023/04/24 08:46:20;;;;;;;3.20;1.67;;;;;;;;;;4997983;28;20174;-49
2023/04/24 08:48:47;;;;;;;3.67;1.95;;;;;;;;;;4998180;28;20228;-50
2023/04/24 08:51:13;;;;;;;3.72;1.90;;;;;;;;;;4998286;28;20572;-49
2023/04/24 08:53:39;;;;;;;2.70;1.63;;;;;;;;;;4997836;28;20193;-50
2023/04/24 08:56:05;;;;;;;2.78;1.75;;;;;;;;;;4997946;28;20228;-49
2023/04/24 08:58:32;;;;;;;3.30;1.65;;;;;;;;;;4997998;28;20193;-50
2023/04/24 09:00:58;;;;;;;2.88;1.67;;;;;;;;;;4997907;28;20223;-49
2023/04/24 09:03:24;;;;;;;3.35;1.55;;;;;;;;;;4997619;28;20177;-50
2023/04/24 09:05:51;;;;;;;2.97;1.60;;;;;;;;;;4997812;28;20455;-49
2023/04/24 09:08:18;;;;;;;4.15;1.90;;;;;;;;;;4996219;28;20211;-49
2023/04/24 09:10:44;;;;;;;3.58;1.80;;;;;;;;;;4991528;28;20581;-49
2023/04/24 09:13:10;;;;;;;2.97;1.40;;;;;;;;;;4995414;28;20205;-49
2023/04/24 09:15:36;;;;;;;3.72;1.60;;;;;;;;;;4996815;28;20199;-49
2023/04/24 09:18:02;;;;;;;3.90;1.80;;;;;;;;;;4996355;28;20185;-50
2023/04/24 09:20:29;;;;;;;2.75;1.40;;;;;;;;;;4997120;28;20213;-49
2023/04/24 09:22:55;;;;;;;3.13;1.70;;;;;;;;;;4996551;28;20212;-50
2023/04/24 09:25:21;;;;;;;2.65;1.40;;;;;;;;;;4997112;28;20452;-50
2023/04/24 09:27:47;;;;;;;2.83;1.58;;;;;;;;;;4996867;28;20454;-49
2023/04/24 09:30:14;;;;;;;2.10;1.50;;;;;;;;;;4994988;28;20184;-50
2023/04/24 09:32:41;;;;;;;3.47;1.48;;;;;;;;;;4997054;28;20403;-50
2023/04/24 09:35:08;;;;;;;2.40;1.60;;;;;;;;;;4996454;28;20180;-49
2023/04/24 09:37:44;;;;;;;2.08;1.30;;;;;;;;;;4996423;28;20193;-50
2023/04/24 09:40:18;;;;;;;1.73;1.30;;;;;;;;;;4995957;28;20235;-49
2023/04/24 09:42:52;;;;;;;1.88;1.30;;;;;;;;;;4996117;28;20185;-49
2023/04/24 09:45:18;;;;;;;2.40;1.63;;;;;;;;;;4995135;28;20181;-49
2023/04/24 09:47:44;;;;;;;2.95;1.33;;;;;;;;;;4996078;28;20236;-49
2023/04/24 09:50:14;;;;;;;1.92;1.20;;;;;;;;;;4995605;28;20213;-50
2023/04/24 09:52:41;;;;;;;3.00;1.67;;;;;;;;;;4996562;28;20219;-48
2023/04/24 09:55:33;;;;;;;1.55;1.10;;;;;;;;;;4995828;28;20193;-49
2023/04/24 09:58:00;;;;;;;2.08;1.08;;;;;;;;;;4991023;28;20284;-49
2023/04/24 10:00:28;;;;;;;2.53;1.25;;;;;;;;;;4995883;28;20177;-50
2023/04/24 10:02:57;;;;;;;1.63;1.17;;;;;;;;;;4995960;28;20192;-49
2023/04/24 10:05:33;;;;;;;2.95;1.10;;;;;;;;;;4989713;28;20213;-49
2023/04/24 10:08:02;;;;;;;1.10;1.00;;;;;;;;;;4995517;28;20187;-49
2023/04/24 10:10:28;;;;;;;2.72;1.40;;;;;;;;;;4995819;28;20260;-50
2023/04/24 10:12:55;;;;;;;2.55;1.08;;;;;;;;;;4996546;28;20212;-49
2023/04/24 10:15:22;;;;;;;1.42;1.02;;;;;;;;;;4995448;28;20260;-49
2023/04/24 10:17:52;;;;;;;2.00;1.08;;;;;;;;;;4994533;28;20204;-49
2023/04/24 10:20:18;;;;;;;1.52;1.08;;;;;;;;;;4994874;28;20557;-49
2023/04/24 10:22:45;;;;;;;1.90;1.10;;;;;;;;;;4996742;28;20181;-50
2023/04/24 10:25:12;;;;;;;2.30;1.20;;;;;;;;;;4994626;28;20196;-50
2023/04/24 10:27:38;;;;;;;1.67;1.00;;;;;;;;;;4995596;28;20181;-49
2023/04/24 10:30:04;;;;;;;1.13;1.00;;;;;;;;;;4995389;28;20252;-50
2023/04/24 10:32:30;;;;;;;1.23;0.95;;;;;;;;;;4996069;28;20189;-50
2023/04/24 10:34:56;;;;;;;1.90;1.20;;;;;;;;;;4995704;28;20185;-49
2023/04/24 10:37:23;;;;;;;1.63;1.08;;;;;;;;;;4995428;28;20231;-49
2023/04/24 10:39:50;;;;;;;1.42;1.00;;;;;;;;;;4995798;28;20514;-49
2023/04/24 10:42:16;;;;;;;0.88;0.88;;;;;;;;;;4988892;28;20319;-49
2023/04/24 10:44:42;;;;;;;1.35;1.08;;;;;;;;;;4995115;28;20295;-49
2023/04/24 10:47:14;;;;;;;1.35;1.10;;;;;;;;;;4994691;28;20228;-50
2023/04/24 10:49:40;;;;;;;1.98;1.25;;;;;;;;;;4994754;28;20200;-50
2023/04/24 10:52:06;;;;;;;1.45;0.90;;;;;;;;;;4995777;28;20577;-49
2023/04/24 10:54:36;;;;;;;0.85;0.85;;;;;;;;;;4995278;28;20193;-48
2023/04/24 10:57:21;;;;;;;0.80;0.80;;;;;;;;;;4994914;28;20196;-49
2023/04/24 10:59:48;;;;;;;0.93;0.90;;;;;;;;;;4994001;28;20188;-50
2023/04/24 11:02:17;;;;;;;0.63;0.63;;;;;;;;;;4995002;28;20272;-49
2023/04/24 11:04:43;;;;;;;0.80;0.80;;;;;;;;;;4994893;28;20200;-49
2023/04/24 11:07:10;;;;;;;1.10;0.90;;;;;;;;;;4994368;28;20560;-48
2023/04/24 11:09:36;;;;;;;1.50;0.95;;;;;;;;;;4993375;28;20177;-50
2023/04/24 11:12:10;;;;;;;2.03;1.08;;;;;;;;;;4977917;28;20189;-50
2023/04/24 11:14:55;;;;;;;1.27;0.90;;;;;;;;;;4994408;28;20251;-50
2023/04/24 11:17:36;;;;;;;1.10;1.00;;;;;;;;;;4993415;28;20189;-50
2023/04/24 11:20:06;;;;;;;0.80;0.80;;;;;;;;;;4991413;28;20327;-50
2023/04/24 11:22:34;;;;;;;1.52;0.98;;;;;;;;;;4994802;28;20219;-50
2023/04/24 11:25:04;;;;;;;1.67;0.80;;;;;;;;;;4994578;28;20173;-49
2023/04/24 11:27:31;;;;;;;0.70;0.70;;;;;;;;;;4993986;28;20188;-49
2023/04/24 11:29:57;;;;;;;1.10;0.90;;;;;;;;;;4994493;28;20184;-49
2023/04/24 11:32:42;;;;;;;1.20;0.80;;;;;;;;;;4994703;28;20174;-50
2023/04/24 11:35:21;;;;;;;1.05;0.90;;;;;;;;;;4994780;28;20480;-50
2023/04/24 11:37:51;;;;;;;0.82;0.70;;;;;;;;;;4993729;28;20192;-49
2023/04/24 11:40:20;;;;;;;1.17;0.90;;;;;;;;;;4993125;28;20239;-49
2023/04/24 11:42:49;;;;;;;0.70;0.70;;;;;;;;;;4993895;28;20216;-49
2023/04/24 11:45:15;;;;;;;1.00;0.65;;;;;;;;;;4991792;28;20188;-48
2023/04/24 11:47:41;;;;;;;1.20;0.77;;;;;;;;;;4993943;28;20445;-49
2023/04/24 11:50:08;;;;;;;0.70;0.70;;;;;;;;;;4993382;28;20185;-49
2023/04/24 11:52:37;;;;;;;1.52;0.70;;;;;;;;;;4994924;28;20212;-49
2023/04/24 11:55:03;;;;;;;0.70;0.60;;;;;;;;;;4992960;28;20455;-49
2023/04/24 11:57:34;;;;;;;0.60;0.50;;;;;;;;;;4994117;28;20181;-49
2023/04/24 12:00:00;;;;;;;1.00;0.90;;;;;;;;;;4993917;28;20240;-49
2023/04/24 12:02:27;;;;;;;0.95;0.85;;;;;;;;;;4993837;28;20213;-50
2023/04/24 12:04:53;;;;;;;1.33;0.80;;;;;;;;;;4993858;28;20231;-49
2023/04/24 12:07:19;;;;;;;0.80;0.80;;;;;;;;;;4993751;28;20440;-49
2023/04/24 12:09:47;;;;;;;0.60;0.60;;;;;;;;;;4990503;28;20262;-49
2023/04/24 12:12:14;;;;;;;0.70;0.70;;;;;;;;;;4994265;28;20188;-49
2023/04/24 12:14:43;;;;;;;0.80;0.80;;;;;;;;;;4992175;28;20500;-49
2023/04/24 12:17:09;;;;;;;0.93;0.90;;;;;;;;;;4994084;28;20279;-50
2023/04/24 12:19:36;;;;;;;0.95;0.82;;;;;;;;;;4993800;28;20583;-49
2023/04/24 12:22:02;;;;;;;0.98;0.60;;;;;;;;;;4994472;28;20201;-49
2023/04/24 12:24:28;;;;;;;0.60;0.60;;;;;;;;;;4994031;28;20224;-49
2023/04/24 12:26:54;;;;;;;1.10;1.00;;;;;;;;;;4993696;28;20181;-50
2023/04/24 12:29:21;;;;;;;0.90;0.90;;;;;;;;;;4993746;28;20599;-49
2023/04/24 12:31:47;;;;;;;0.68;0.68;;;;;;;;;;4994127;28;20201;-50
2023/04/24 12:34:23;;;;;;;0.77;0.77;;;;;;;;;;4992990;28;20512;-50
2023/04/24 12:36:49;;;;;;;0.65;0.65;;;;;;;;;;4994281;28;20181;-49
2023/04/24 12:39:19;;;;;;;0.70;0.60;;;;;;;;;;4993623;28;20576;-49
2023/04/24 12:41:51;;;;;;;0.70;0.70;;;;;;;;;;4993350;28;20225;-49
2023/04/24 12:44:18;;;;;;;0.70;0.70;;;;;;;;;;4993538;28;21985;-48
2023/04/24 12:46:44;;;;;;;0.60;0.60;;;;;;;;;;4993622;28;20192;-49
2023/04/24 12:49:10;;;;;;;0.80;0.75;;;;;;;;;;4993393;28;20192;-49
2023/04/24 12:51:36;;;;;;;1.80;0.60;;;;;;;;;;4994740;28;20449;-49
2023/04/24 12:54:02;;;;;;;0.77;0.77;;;;;;;;;;4993563;28;20267;-49
2023/04/24 12:56:28;;;;;;;1.17;0.60;;;;;;;;;;4991775;28;20272;-49
2023/04/24 12:58:54;;;;;;;0.68;0.68;;;;;;;;;;4993323;28;20213;-49
2023/04/24 13:01:20;;;;;;;1.50;0.82;;;;;;;;;;4992674;28;20611;-50
2023/04/24 13:03:46;;;;;;;0.80;0.80;;;;;;;;;;4992786;28;20254;-49
2023/04/24 13:06:12;;;;;;;1.15;0.60;;;;;;;;;;4993603;28;20213;-50
2023/04/24 13:08:38;;;;;;;0.77;0.77;;;;;;;;;;4994247;28;20192;-49
2023/04/24 13:11:04;;;;;;;0.98;0.73;;;;;;;;;;4995857;28;20193;-50
2023/04/24 13:13:30;;;;;;;0.63;0.63;;;;;;;;;;4995334;28;20201;-49
2023/04/24 13:15:56;;;;;;;0.70;0.70;;;;;;;;;;4996540;28;20466;-49
2023/04/24 13:18:22;;;;;;;0.93;0.70;;;;;;;;;;4996426;28;20276;-49
2023/04/24 13:20:48;;;;;;;0.55;0.55;;;;;;;;;;4996702;28;20215;-49
2023/04/24 13:23:15;;;;;;;0.65;0.60;;;;;;;;;;4981573;28;20295;-49
2023/04/24 13:25:41;;;;;;;1.45;0.80;;;;;;;;;;4996757;28;20173;-49
2023/04/24 13:28:07;;;;;;;0.98;0.77;;;;;;;;;;4997345;28;20205;-49
2023/04/24 13:30:34;;;;;;;1.00;0.68;;;;;;;;;;4987289;28;20177;-49
2023/04/24 13:33:00;;;;;;;2.05;0.77;;;;;;;;;;4996845;28;20177;-50
2023/04/24 13:35:26;;;;;;;0.80;0.80;;;;;;;;;;4996460;28;20200;-49
2023/04/24 13:37:52;;;;;;;1.50;0.95;;;;;;;;;;4996087;28;20181;-50
2023/04/24 13:40:17;;;;;;;1.70;1.02;;;;;;;;;;4996526;28;20185;-50
2023/04/24 13:42:44;;;;;;;1.80;0.82;;;;;;;;;;4996672;28;20296;-49
2023/04/24 13:45:10;;;;;;;0.80;0.80;;;;;;;;;;4994679;28;20185;-49
2023/04/24 13:47:36;;;;;;;0.70;0.70;;;;;;;;;;4996358;28;20557;-49
2023/04/24 13:50:02;;;;;;;1.00;0.90;;;;;;;;;;4996896;28;20260;-50
2023/04/24 13:52:28;;;;;;;0.70;0.70;;;;;;;;;;4997344;28;20184;-49
2023/04/24 13:54:55;;;;;;;1.58;0.80;;;;;;;;;;4995899;28;20492;-49
2023/04/24 13:57:21;;;;;;;1.42;0.90;;;;;;;;;;4995619;28;20471;-49
2023/04/24 13:59:47;;;;;;;0.85;0.85;;;;;;;;;;4994958;28;20557;-49
2023/04/24 14:02:13;;;;;;;0.80;0.80;;;;;;;;;;4996264;28;20236;-49
2023/04/24 14:04:39;;;;;;;1.05;0.68;;;;;;;;;;4996171;28;20540;-49
2023/04/24 14:07:05;;;;;;;0.60;0.60;;;;;;;;;;4996176;28;20185;-49
2023/04/24 14:09:31;;;;;;;1.58;0.70;;;;;;;;;;4995030;28;20248;-49
2023/04/24 14:11:57;;;;;;;1.40;0.80;;;;;;;;;;4995427;28;20247;-49
2023/04/24 14:14:23;;;;;;;2.05;1.27;;;;;;;;;;4995567;28;20612;-49
2023/04/24 14:16:49;;;;;;;0.85;0.68;;;;;;;;;;4995212;28;20231;-49
2023/04/24 14:19:15;;;;;;;0.80;0.80;;;;;;;;;;4995541;28;20264;-50
2023/04/24 14:21:41;;;;;;;0.95;0.63;;;;;;;;;;4996018;28;20284;-49
2023/04/24 14:24:07;;;;;;;1.65;0.95;;;;;;;;;;4995413;28;20611;-49
2023/04/24 14:26:33;;;;;;;2.70;0.90;;;;;;;;;;4994860;28;20189;-49
2023/04/24 14:28:59;;;;;;;1.85;0.75;;;;;;;;;;4995612;28;20548;-50
2023/04/24 14:31:24;;;;;;;1.05;0.75;;;;;;;;;;4995905;28;20193;-50
2023/04/24 14:33:50;;;;;;;3.25;0.90;;;;;;;;;;4995247;28;20189;-50
2023/04/24 14:36:16;;;;;;;1.17;0.85;;;;;;;;;;4995472;28;20515;-50
2023/04/24 14:38:42;;;;;;;1.10;0.90;;;;;;;;;;4994348;28;20181;-50